DAL290 KLAX-LFPG
Flight info
| Callsign | DAL290 |
|---|---|
| Flight time | N/A |
| Altitude | 35000 |
| Route | ORCKA5 LAS Q70 BLIPP Q842 WINEN DCT OCS J202 DDY DCT TIMMR DCT HML DCT 55N090W 60N080W/N0481F370 DCT TEFFO DCT BERUS/M085F370 DCT EMBOK DCT 63N050W 6230N04000W 61N030W 59N020W 58N015W DCT GOMUP/N0488F370 DCT GINGA/N0482F390 DCT AKOMU DCT VAMEB UL612 MID/N0509F290 Y803 SFD UM605 BIBAX |
| Aircraft | A35K/H-SDE2E3GHIJ3J4J5LM1ORWXY/LB1D1 |
Departure
| Time | 2026-04-26 00:51 |
|---|---|
| Airport | Los Angeles International Airport (KLAX) |
Arrival
| Time | N/A |
|---|---|
| Airport | Charles de Gaulle International Airport (LFPG) |
| Time | Latitude | Longitude | Altitude | Speed | Heading |
|---|---|---|---|---|---|
| 2026-04-25 23:26 | 33.94545 | -118.40988 | 132 ft | 0 kts | 261° |
| 2026-04-26 00:32 | 33.94549 | -118.40965 | 128 ft | 4 kts | 259° |
| 2026-04-26 00:33 | 33.94553 | -118.40939 | 131 ft | 4 kts | 282° |
| 2026-04-26 00:33 | 33.94546 | -118.40916 | 131 ft | 4 kts | 303° |
| 2026-04-26 00:33 | 33.94531 | -118.40896 | 128 ft | 4 kts | 330° |
| 2026-04-26 00:33 | 33.94508 | -118.40885 | 126 ft | 4 kts | 350° |
| 2026-04-26 00:34 | 33.94497 | -118.40883 | 131 ft | 0 kts | 353° |
| 2026-04-26 00:38 | 33.94507 | -118.40884 | 124 ft | 6 kts | 353° |
| 2026-04-26 00:38 | 33.94543 | -118.40890 | 127 ft | 8 kts | 353° |
| 2026-04-26 00:38 | 33.94603 | -118.40899 | 125 ft | 9 kts | 353° |
| 2026-04-26 00:38 | 33.94671 | -118.40909 | 128 ft | 10 kts | 353° |
| 2026-04-26 00:39 | 33.94738 | -118.40936 | 126 ft | 10 kts | 311° |
| 2026-04-26 00:39 | 33.94741 | -118.41012 | 126 ft | 9 kts | 263° |
| 2026-04-26 00:39 | 33.94733 | -118.41092 | 126 ft | 10 kts | 263° |
| 2026-04-26 00:39 | 33.94720 | -118.41175 | 125 ft | 10 kts | 252° |
| 2026-04-26 00:40 | 33.94700 | -118.41258 | 126 ft | 11 kts | 257° |
| 2026-04-26 00:40 | 33.94683 | -118.41345 | 125 ft | 10 kts | 241° |
| 2026-04-26 00:40 | 33.94623 | -118.41374 | 123 ft | 10 kts | 187° |
| 2026-04-26 00:40 | 33.94552 | -118.41371 | 129 ft | 11 kts | 175° |
| 2026-04-26 00:41 | 33.94475 | -118.41363 | 127 ft | 11 kts | 175° |
| 2026-04-26 00:41 | 33.94394 | -118.41349 | 130 ft | 12 kts | 170° |
| 2026-04-26 00:41 | 33.94308 | -118.41331 | 130 ft | 13 kts | 170° |
| 2026-04-26 00:41 | 33.94216 | -118.41315 | 127 ft | 14 kts | 172° |
| 2026-04-26 00:42 | 33.94120 | -118.41300 | 128 ft | 14 kts | 173° |
| 2026-04-26 00:42 | 33.94019 | -118.41285 | 128 ft | 15 kts | 173° |
| 2026-04-26 00:42 | 33.93916 | -118.41269 | 126 ft | 15 kts | 173° |
| 2026-04-26 00:42 | 33.93825 | -118.41256 | 126 ft | 10 kts | 173° |
| 2026-04-26 00:43 | 33.93768 | -118.41237 | 128 ft | 8 kts | 141° |
| 2026-04-26 00:43 | 33.93758 | -118.41173 | 124 ft | 8 kts | 83° |
| 2026-04-26 00:43 | 33.93766 | -118.41098 | 123 ft | 10 kts | 83° |
| 2026-04-26 00:43 | 33.93774 | -118.41014 | 131 ft | 11 kts | 83° |
| 2026-04-26 00:44 | 33.93784 | -118.40919 | 129 ft | 12 kts | 83° |
| 2026-04-26 00:44 | 33.93794 | -118.40816 | 127 ft | 13 kts | 83° |
| 2026-04-26 00:44 | 33.93806 | -118.40702 | 131 ft | 14 kts | 83° |
| 2026-04-26 00:44 | 33.93818 | -118.40581 | 129 ft | 15 kts | 83° |
| 2026-04-26 00:45 | 33.93832 | -118.40451 | 131 ft | 16 kts | 83° |
| 2026-04-26 00:45 | 33.93846 | -118.40312 | 131 ft | 17 kts | 83° |
| 2026-04-26 00:45 | 33.93861 | -118.40165 | 128 ft | 18 kts | 83° |
| 2026-04-26 00:45 | 33.93876 | -118.40013 | 131 ft | 17 kts | 83° |
| 2026-04-26 00:46 | 33.93891 | -118.39865 | 128 ft | 18 kts | 83° |
| 2026-04-26 00:46 | 33.93907 | -118.39708 | 131 ft | 19 kts | 83° |
| 2026-04-26 00:46 | 33.93924 | -118.39550 | 129 ft | 19 kts | 83° |
| 2026-04-26 00:46 | 33.93940 | -118.39389 | 123 ft | 20 kts | 83° |
| 2026-04-26 00:47 | 33.93957 | -118.39221 | 129 ft | 21 kts | 83° |
| 2026-04-26 00:47 | 33.93975 | -118.39048 | 131 ft | 21 kts | 83° |
| 2026-04-26 00:47 | 33.93993 | -118.38879 | 131 ft | 17 kts | 83° |
| 2026-04-26 00:47 | 33.94008 | -118.38734 | 126 ft | 18 kts | 83° |
| 2026-04-26 00:48 | 33.94023 | -118.38581 | 129 ft | 19 kts | 83° |
| 2026-04-26 00:48 | 33.94037 | -118.38454 | 124 ft | 15 kts | 83° |
| 2026-04-26 00:48 | 33.94048 | -118.38354 | 129 ft | 10 kts | 82° |
| 2026-04-26 00:48 | 33.94057 | -118.38263 | 131 ft | 12 kts | 83° |
| 2026-04-26 00:49 | 33.94068 | -118.38163 | 131 ft | 13 kts | 83° |
| 2026-04-26 00:49 | 33.94078 | -118.38057 | 131 ft | 11 kts | 85° |
| 2026-04-26 00:49 | 33.94035 | -118.37993 | 128 ft | 10 kts | 165° |
| 2026-04-26 00:49 | 33.93988 | -118.38028 | 123 ft | 8 kts | 242° |
| 2026-04-26 00:50 | 33.93978 | -118.38094 | 131 ft | 8 kts | 261° |
| 2026-04-26 00:50 | 33.93961 | -118.38231 | 126 ft | 38 kts | 263° |
| 2026-04-26 00:50 | 33.93907 | -118.38781 | 132 ft | 93 kts | 263° |
| 2026-04-26 00:50 | 33.93806 | -118.39756 | 130 ft | 140 kts | 263° |
| 2026-04-26 00:51 | 33.93683 | -118.41029 | 419 ft | 155 kts | 264° |
| 2026-04-26 00:51 | 33.93590 | -118.42255 | 1130 ft | 142 kts | 265° |
| 2026-04-26 00:51 | 33.93492 | -118.43485 | 1416 ft | 156 kts | 262° |
| 2026-04-26 00:51 | 33.93331 | -118.44861 | 1598 ft | 176 kts | 262° |
| 2026-04-26 00:52 | 33.93022 | -118.46366 | 1828 ft | 195 kts | 251° |
| 2026-04-26 00:52 | 33.92491 | -118.47951 | 2103 ft | 213 kts | 247° |
| 2026-04-26 00:52 | 33.91871 | -118.49682 | 2323 ft | 235 kts | 247° |
| 2026-04-26 00:52 | 33.91213 | -118.51528 | 2850 ft | 243 kts | 247° |
| 2026-04-26 00:53 | 33.90547 | -118.53417 | 3470 ft | 247 kts | 248° |
| 2026-04-26 00:53 | 33.89875 | -118.55332 | 4078 ft | 249 kts | 248° |
| 2026-04-26 00:53 | 33.89198 | -118.57267 | 4707 ft | 252 kts | 248° |
| 2026-04-26 00:53 | 33.88511 | -118.59233 | 5334 ft | 255 kts | 248° |
| 2026-04-26 00:54 | 33.87822 | -118.61169 | 6002 ft | 257 kts | 245° |
| 2026-04-26 00:54 | 33.86842 | -118.62976 | 6647 ft | 260 kts | 229° |
| 2026-04-26 00:54 | 33.85389 | -118.64291 | 7292 ft | 266 kts | 206° |
| 2026-04-26 00:54 | 33.83558 | -118.64723 | 7959 ft | 275 kts | 179° |
| 2026-04-26 00:55 | 33.81726 | -118.64019 | 8642 ft | 285 kts | 149° |
| 2026-04-26 00:55 | 33.80376 | -118.62251 | 9316 ft | 295 kts | 119° |
| 2026-04-26 00:55 | 33.79924 | -118.59835 | 9941 ft | 304 kts | 88° |
| 2026-04-26 00:55 | 33.80514 | -118.57372 | 10321 ft | 317 kts | 58° |
| 2026-04-26 00:56 | 33.82034 | -118.55398 | 10715 ft | 330 kts | 35° |
| 2026-04-26 00:56 | 33.83896 | -118.53672 | 11192 ft | 346 kts | 37° |
| 2026-04-26 00:56 | 33.85806 | -118.51776 | 11499 ft | 363 kts | 38° |
| 2026-04-26 00:56 | 33.87741 | -118.49716 | 11771 ft | 379 kts | 40° |
| 2026-04-26 00:57 | 33.89716 | -118.47531 | 12056 ft | 394 kts | 41° |
| 2026-04-26 00:57 | 33.91756 | -118.45224 | 12310 ft | 409 kts | 41° |
| 2026-04-26 00:57 | 33.93669 | -118.42619 | 12679 ft | 420 kts | 52° |
| 2026-04-26 00:57 | 33.95366 | -118.39716 | 13179 ft | 427 kts | 54° |
| 2026-04-26 00:58 | 33.97046 | -118.36733 | 13686 ft | 432 kts | 54° |
| 2026-04-26 00:58 | 33.98743 | -118.33718 | 14162 ft | 437 kts | 54° |
| 2026-04-26 00:58 | 34.00461 | -118.30673 | 14663 ft | 440 kts | 54° |
| 2026-04-26 00:58 | 34.02171 | -118.27654 | 15191 ft | 444 kts | 54° |
| 2026-04-26 00:59 | 34.03914 | -118.24576 | 15736 ft | 447 kts | 55° |
| 2026-04-26 00:59 | 34.05678 | -118.21458 | 16244 ft | 451 kts | 55° |
| 2026-04-26 00:59 | 34.07458 | -118.18311 | 16746 ft | 454 kts | 56° |
| 2026-04-26 00:59 | 34.09244 | -118.15151 | 17268 ft | 458 kts | 56° |
| 2026-04-26 01:00 | 34.11049 | -118.11955 | 17780 ft | 462 kts | 56° |
| 2026-04-26 01:00 | 34.12848 | -118.08774 | 18270 ft | 465 kts | 56° |
| 2026-04-26 01:00 | 34.14683 | -118.05530 | 18693 ft | 470 kts | 56° |
| 2026-04-26 01:00 | 34.16510 | -118.02281 | 19056 ft | 475 kts | 56° |
| 2026-04-26 01:01 | 34.18389 | -117.98937 | 19470 ft | 480 kts | 56° |
| 2026-04-26 01:01 | 34.20277 | -117.95577 | 19882 ft | 485 kts | 57° |
| 2026-04-26 01:01 | 34.22180 | -117.92187 | 20307 ft | 489 kts | 56° |
| 2026-04-26 01:01 | 34.24100 | -117.88767 | 20704 ft | 494 kts | 56° |
| 2026-04-26 01:02 | 34.26041 | -117.85307 | 21129 ft | 499 kts | 57° |
| 2026-04-26 01:02 | 34.27998 | -117.81813 | 21584 ft | 504 kts | 57° |
| 2026-04-26 01:02 | 34.29973 | -117.78283 | 22022 ft | 508 kts | 57° |
| 2026-04-26 01:02 | 34.31962 | -117.74724 | 22415 ft | 513 kts | 57° |
| 2026-04-26 01:03 | 34.33970 | -117.71130 | 22878 ft | 517 kts | 57° |
| 2026-04-26 01:03 | 34.35998 | -117.67517 | 23340 ft | 521 kts | 56° |
| 2026-04-26 01:03 | 34.38130 | -117.63933 | 23685 ft | 526 kts | 54° |
| 2026-04-26 01:03 | 34.40269 | -117.60398 | 24085 ft | 529 kts | 54° |
| 2026-04-26 01:04 | 34.42442 | -117.56791 | 24537 ft | 531 kts | 55° |
| 2026-04-26 01:04 | 34.44618 | -117.53160 | 24943 ft | 533 kts | 55° |
| 2026-04-26 01:04 | 34.46804 | -117.49499 | 25350 ft | 536 kts | 55° |
| 2026-04-26 01:04 | 34.48986 | -117.45838 | 25759 ft | 539 kts | 55° |
| 2026-04-26 01:05 | 34.51192 | -117.42128 | 26154 ft | 542 kts | 55° |
| 2026-04-26 01:05 | 34.53400 | -117.38412 | 26536 ft | 545 kts | 55° |
| 2026-04-26 01:05 | 34.55621 | -117.34667 | 26940 ft | 547 kts | 56° |
| 2026-04-26 01:05 | 34.57843 | -117.30917 | 27331 ft | 550 kts | 56° |
| 2026-04-26 01:06 | 34.60081 | -117.27136 | 27690 ft | 553 kts | 56° |
| 2026-04-26 01:06 | 34.62333 | -117.23327 | 28044 ft | 556 kts | 56° |
| 2026-04-26 01:06 | 34.64594 | -117.19498 | 28396 ft | 558 kts | 56° |
| 2026-04-26 01:06 | 34.66861 | -117.15655 | 28713 ft | 561 kts | 56° |
| 2026-04-26 01:07 | 34.69129 | -117.11805 | 29115 ft | 561 kts | 56° |
| 2026-04-26 01:07 | 34.71373 | -117.07994 | 29587 ft | 560 kts | 56° |
| 2026-04-26 01:07 | 34.73633 | -117.04152 | 30013 ft | 559 kts | 56° |
| 2026-04-26 01:07 | 34.75895 | -117.00300 | 30395 ft | 559 kts | 56° |
| 2026-04-26 01:08 | 34.78150 | -116.96457 | 30706 ft | 559 kts | 56° |
| 2026-04-26 01:08 | 34.80418 | -116.92588 | 31046 ft | 560 kts | 56° |
| 2026-04-26 01:08 | 34.82680 | -116.88725 | 31364 ft | 560 kts | 56° |
| 2026-04-26 01:08 | 34.84937 | -116.84866 | 31687 ft | 560 kts | 56° |
| 2026-04-26 01:09 | 34.87198 | -116.80995 | 31976 ft | 561 kts | 56° |
| 2026-04-26 01:09 | 34.89462 | -116.77116 | 32256 ft | 561 kts | 56° |
| 2026-04-26 01:09 | 34.91763 | -116.73273 | 32522 ft | 563 kts | 52° |
| 2026-04-26 01:09 | 34.94333 | -116.69676 | 32802 ft | 563 kts | 47° |
| 2026-04-26 01:10 | 34.96993 | -116.66173 | 33088 ft | 563 kts | 47° |
| 2026-04-26 01:10 | 34.99665 | -116.62671 | 33358 ft | 564 kts | 47° |
| 2026-04-26 01:10 | 35.02305 | -116.59201 | 33611 ft | 564 kts | 47° |
| 2026-04-26 01:10 | 35.04975 | -116.55685 | 33863 ft | 565 kts | 47° |
| 2026-04-26 01:11 | 35.07641 | -116.52169 | 34118 ft | 564 kts | 47° |
| 2026-04-26 01:11 | 35.10307 | -116.48646 | 34378 ft | 563 kts | 47° |
| 2026-04-26 01:11 | 35.12963 | -116.45133 | 34609 ft | 563 kts | 47° |
| 2026-04-26 01:11 | 35.15613 | -116.41622 | 34763 ft | 565 kts | 47° |
| 2026-04-26 01:12 | 35.20985 | -116.34498 | 34777 ft | 570 kts | 47° |
| 2026-04-26 01:12 | 35.26351 | -116.27365 | 34764 ft | 569 kts | 47° |
| 2026-04-26 01:13 | 35.31708 | -116.20228 | 34753 ft | 569 kts | 47° |
| 2026-04-26 01:13 | 35.37065 | -116.13078 | 34752 ft | 569 kts | 47° |
| 2026-04-26 01:14 | 35.42375 | -116.05972 | 34759 ft | 569 kts | 47° |
| 2026-04-26 01:14 | 35.47722 | -115.98804 | 34760 ft | 568 kts | 47° |
| 2026-04-26 01:15 | 35.53052 | -115.91644 | 34765 ft | 567 kts | 47° |
| 2026-04-26 01:15 | 35.58379 | -115.84472 | 34771 ft | 567 kts | 47° |
| 2026-04-26 01:16 | 35.63684 | -115.77315 | 34778 ft | 566 kts | 47° |
| 2026-04-26 01:16 | 35.68891 | -115.70175 | 34780 ft | 566 kts | 48° |
| 2026-04-26 01:17 | 35.74145 | -115.62929 | 34780 ft | 566 kts | 48° |
| 2026-04-26 01:17 | 35.79387 | -115.55696 | 34781 ft | 565 kts | 48° |
| 2026-04-26 01:18 | 35.84622 | -115.48459 | 34777 ft | 564 kts | 48° |
| 2026-04-26 01:18 | 35.89815 | -115.41267 | 34776 ft | 564 kts | 48° |
| 2026-04-26 01:19 | 35.95020 | -115.34043 | 34774 ft | 563 kts | 48° |
| 2026-04-26 01:19 | 36.00215 | -115.26817 | 34779 ft | 563 kts | 48° |
| 2026-04-26 01:20 | 36.05411 | -115.19573 | 34748 ft | 562 kts | 48° |
| 2026-04-26 01:20 | 36.10924 | -115.12712 | 34751 ft | 561 kts | 41° |
| 2026-04-26 01:21 | 36.16769 | -115.06383 | 34693 ft | 561 kts | 39° |
| 2026-04-26 01:21 | 36.22731 | -115.00056 | 34693 ft | 561 kts | 39° |
| 2026-04-26 01:22 | 36.28598 | -114.93772 | 34694 ft | 561 kts | 39° |
| 2026-04-26 01:22 | 36.34487 | -114.87405 | 34676 ft | 561 kts | 40° |
| 2026-04-26 01:23 | 36.40361 | -114.81028 | 34656 ft | 561 kts | 40° |
| 2026-04-26 01:23 | 36.46236 | -114.74635 | 34640 ft | 561 kts | 40° |
| 2026-04-26 01:24 | 36.52103 | -114.68247 | 34627 ft | 560 kts | 40° |
| 2026-04-26 01:24 | 36.57929 | -114.61893 | 34623 ft | 559 kts | 40° |
| 2026-04-26 01:25 | 36.63786 | -114.55491 | 34631 ft | 559 kts | 40° |
| 2026-04-26 01:25 | 36.68635 | -114.50179 | 34629 ft | 559 kts | 40° |
| 2026-04-26 01:26 | 36.74889 | -114.44497 | 34629 ft | 555 kts | 30° |
| 2026-04-26 01:26 | 36.81396 | -114.39325 | 34636 ft | 554 kts | 29° |
| 2026-04-26 01:27 | 36.87931 | -114.34229 | 34636 ft | 553 kts | 29° |
| 2026-04-26 01:27 | 36.94422 | -114.29149 | 34640 ft | 553 kts | 29° |
| 2026-04-26 01:28 | 37.00936 | -114.24022 | 34649 ft | 553 kts | 30° |
| 2026-04-26 01:28 | 37.07439 | -114.18884 | 34651 ft | 552 kts | 30° |
| 2026-04-26 01:29 | 37.13932 | -114.13743 | 34657 ft | 551 kts | 30° |
| 2026-04-26 01:29 | 37.20412 | -114.08602 | 34662 ft | 551 kts | 30° |
| 2026-04-26 01:30 | 37.26886 | -114.03456 | 34670 ft | 550 kts | 30° |
| 2026-04-26 01:30 | 37.33357 | -113.98302 | 34675 ft | 550 kts | 30° |
| 2026-04-26 01:31 | 37.39764 | -113.93188 | 34681 ft | 549 kts | 30° |
| 2026-04-26 01:31 | 37.46205 | -113.88037 | 34687 ft | 548 kts | 30° |
| 2026-04-26 01:32 | 37.52640 | -113.82880 | 34688 ft | 548 kts | 30° |
| 2026-04-26 01:32 | 37.59065 | -113.77720 | 34695 ft | 547 kts | 30° |
| 2026-04-26 01:33 | 37.65489 | -113.72549 | 34691 ft | 547 kts | 30° |
| 2026-04-26 01:33 | 37.71905 | -113.67376 | 34692 ft | 547 kts | 30° |
| 2026-04-26 01:34 | 37.78309 | -113.62201 | 34692 ft | 546 kts | 30° |
| 2026-04-26 01:34 | 37.84695 | -113.57030 | 34692 ft | 546 kts | 30° |
| 2026-04-26 01:35 | 37.91108 | -113.51823 | 34693 ft | 546 kts | 30° |
| 2026-04-26 01:35 | 37.97049 | -113.45805 | 34688 ft | 548 kts | 39° |
| 2026-04-26 01:36 | 38.02718 | -113.39399 | 34687 ft | 548 kts | 40° |
| 2026-04-26 01:37 | 38.11202 | -113.29641 | 34684 ft | 548 kts | 40° |
| 2026-04-26 01:37 | 38.16862 | -113.23136 | 34692 ft | 548 kts | 40° |
| 2026-04-26 01:38 | 38.22516 | -113.16639 | 34713 ft | 548 kts | 40° |
| 2026-04-26 01:38 | 38.28168 | -113.10133 | 34734 ft | 548 kts | 40° |
| 2026-04-26 01:39 | 38.33782 | -113.03655 | 34762 ft | 548 kts | 40° |
| 2026-04-26 01:39 | 38.39433 | -112.97120 | 34757 ft | 548 kts | 40° |
| 2026-04-26 01:40 | 38.45077 | -112.90578 | 34760 ft | 548 kts | 40° |
| 2026-04-26 01:40 | 38.50719 | -112.84024 | 34738 ft | 548 kts | 40° |
| 2026-04-26 01:41 | 38.56361 | -112.77455 | 34716 ft | 548 kts | 40° |
| 2026-04-26 01:41 | 38.61992 | -112.70883 | 34704 ft | 548 kts | 40° |
| 2026-04-26 01:42 | 38.67620 | -112.64303 | 34698 ft | 548 kts | 40° |
| 2026-04-26 01:42 | 38.73211 | -112.57749 | 34726 ft | 548 kts | 40° |
| 2026-04-26 01:43 | 38.78839 | -112.51139 | 34750 ft | 548 kts | 40° |
| 2026-04-26 01:43 | 38.84459 | -112.44524 | 34789 ft | 548 kts | 40° |
| 2026-04-26 01:44 | 38.90079 | -112.37893 | 34787 ft | 548 kts | 40° |
| 2026-04-26 01:44 | 38.95693 | -112.31253 | 34807 ft | 548 kts | 40° |
| 2026-04-26 01:45 | 39.01306 | -112.24601 | 34782 ft | 549 kts | 40° |
| 2026-04-26 01:45 | 39.06912 | -112.17942 | 34785 ft | 549 kts | 40° |
| 2026-04-26 01:46 | 39.12478 | -112.11314 | 34746 ft | 548 kts | 40° |
| 2026-04-26 01:46 | 39.18079 | -112.04631 | 34734 ft | 549 kts | 40° |
| 2026-04-26 01:47 | 39.23674 | -111.97939 | 34728 ft | 549 kts | 40° |
| 2026-04-26 01:47 | 39.29270 | -111.91230 | 34730 ft | 549 kts | 40° |
| 2026-04-26 01:48 | 39.34865 | -111.84509 | 34734 ft | 548 kts | 40° |
| 2026-04-26 01:48 | 39.40452 | -111.77779 | 34738 ft | 549 kts | 40° |
| 2026-04-26 01:49 | 39.46032 | -111.71043 | 34747 ft | 548 kts | 40° |
| 2026-04-26 01:49 | 39.51607 | -111.64298 | 34751 ft | 548 kts | 40° |
| 2026-04-26 01:50 | 39.57144 | -111.57586 | 34759 ft | 548 kts | 40° |
| 2026-04-26 01:50 | 39.62713 | -111.50817 | 34760 ft | 548 kts | 40° |
| 2026-04-26 01:51 | 39.68279 | -111.44037 | 34766 ft | 548 kts | 40° |